Pierrepont Manor, New York
Current Conditions -  °F | °C
As of 10:56 PM on Sunday 28 Dec 2014 (Local Time) from KART Reporting Station
Scattered Clouds Scattered Clouds  
Wind Chill: 28°   Ceiling: Unl
Heat Index: 35°   Visibility: 10mi
Dew Point: 23°   Wind: 9mph
Humidity: 61%   Direction: 270°W
Pressure: 30.05"   Gusts: NA
Location:  43.73°N, 76.06°W
Report Text: KART 290356Z AUTO 27008KT 10SM SCT065 02/M05 A3005 RMK AO2 SLP179 T00171050 $
Loading
Personal Weather Stations






























Interactive Weather Map New forecast layout! Learn more

10-Day Weather Forecast

Advertisements
Track Severe Weather on mobile